GOOY

Léopold Sédar Senghor International Airport

Dakar, Senegal
METAR GOOY 191900Z 32006KT 8000 NSC 27/25 Q1009
Observed Flight Rules
Oct-19 @ 19:00 UTC (52 minutes ago) Marginal Visual Flight Rules
Wind Visibility Clouds
320° at 6 knots 7,998 meters
  • Clear skies
Temperatures Readings
Current 27°C / 81°F
Dewpoint 25°C / 77°F
Humidity 89%
Altimeter 29.79" Hg
Pressure 1009 hPa
Elevation 24
METAR GOOY 191900Z 32006KT 8000 NSC 27/25 Q1009
Observed Flight Rules
Oct-19 @ 19:00 UTC
(52 minutes ago)
MVFR
Wind Visibility
320° at 6 knots 7,998 meters
Clouds
  • Clear skies
Temperature Dewpoint
27°C / 81°F 25°C / 77°F
Humidity Altimeter Pressure
89% 29.79" Hg 1009 hPa